createdAt,value
2019-03-26T00:00:57.247Z,87.31
2019-03-26T00:03:28.356Z,87.62
2019-03-26T00:05:59.915Z,88.20
2019-03-26T00:08:31.160Z,88.74
2019-03-26T00:11:02.628Z,88.74
2019-03-26T00:13:33.393Z,88.66
2019-03-26T00:16:04.359Z,88.68
2019-03-26T00:18:35.219Z,88.42
2019-03-26T00:21:06.350Z,88.63
2019-03-26T00:23:37.117Z,88.26
2019-03-26T00:26:08.105Z,88.41
2019-03-26T00:28:38.842Z,88.94
2019-03-26T00:31:09.707Z,89.12
2019-03-26T00:33:40.733Z,89.18
2019-03-26T00:36:11.497Z,89.50
2019-03-26T00:38:42.366Z,89.57
2019-03-26T00:41:13.386Z,89.96
2019-03-26T00:43:44.307Z,90.23
2019-03-26T00:46:15.130Z,90.65
2019-03-26T00:48:46.432Z,90.76
2019-03-26T00:51:17.395Z,90.88
2019-03-26T00:53:49.467Z,91.17
2019-03-26T00:56:20.476Z,91.17
2019-03-26T00:58:51.028Z,91.04
2019-03-26T01:01:21.685Z,91.25
2019-03-26T01:03:54.880Z,91.50
2019-03-26T01:06:25.348Z,91.32
2019-03-26T01:08:56.000Z,91.10
2019-03-26T01:11:27.049Z,91.30
2019-03-26T01:13:58.105Z,91.47
2019-03-26T01:16:29.331Z,91.72
2019-03-26T01:19:00.081Z,91.72
2019-03-26T01:21:30.836Z,91.76
2019-03-26T01:24:01.690Z,91.41
2019-03-26T01:26:32.785Z,91.49
2019-03-26T01:29:04.164Z,91.28
2019-03-26T01:31:35.401Z,91.11
2019-03-26T01:34:07.011Z,90.81
2019-03-26T01:36:37.625Z,91.09
2019-03-26T01:39:08.401Z,90.52
2019-03-26T01:41:39.309Z,90.73
2019-03-26T01:44:10.888Z,90.85
2019-03-26T01:46:41.589Z,90.75
2019-03-26T01:49:12.385Z,90.71
2019-03-26T01:51:43.304Z,90.71
2019-03-26T01:54:14.270Z,90.80
2019-03-26T01:56:45.683Z,90.46
2019-03-26T01:59:16.484Z,90.07
2019-03-26T02:01:47.461Z,89.94
2019-03-26T02:04:18.298Z,90.02
2019-03-26T02:06:49.506Z,89.97
2019-03-26T02:09:20.138Z,89.81
2019-03-26T02:11:50.866Z,90.35
2019-03-26T02:14:21.863Z,90.35
2019-03-26T02:16:52.807Z,90.01
2019-03-26T02:19:23.605Z,89.86
2019-03-26T02:21:54.583Z,90.03
2019-03-26T02:24:25.427Z,90.25
2019-03-26T02:26:56.254Z,90.32
2019-03-26T02:29:26.987Z,90.55
2019-03-26T02:31:58.234Z,90.71
2019-03-26T02:34:28.939Z,90.88
2019-03-26T02:37:00.130Z,90.55
2019-03-26T02:39:31.405Z,90.49
2019-03-26T02:42:02.320Z,90.53
2019-03-26T02:44:33.127Z,90.29
2019-03-26T02:47:04.022Z,90.35
2019-03-26T02:49:35.024Z,89.96
2019-03-26T02:52:05.794Z,89.95
2019-03-26T02:54:36.202Z,89.69
2019-03-26T02:57:07.107Z,89.69
2019-03-26T02:59:38.406Z,89.35
2019-03-26T03:02:09.068Z,89.77
2019-03-26T03:04:40.018Z,89.39
2019-03-26T03:07:10.690Z,89.04
2019-03-26T03:09:41.642Z,88.92
2019-03-26T03:12:12.688Z,89.27
2019-03-26T03:14:43.807Z,89.84
2019-03-26T03:17:14.725Z,90.08
2019-03-26T03:19:45.687Z,90.27
2019-03-26T03:22:16.435Z,90.29
2019-03-26T03:24:46.858Z,90.55
2019-03-26T03:27:17.543Z,90.64
2019-03-26T03:29:48.349Z,90.82
2019-03-26T03:32:19.189Z,90.94
2019-03-26T03:34:49.983Z,91.16
2019-03-26T03:37:20.994Z,90.98
2019-03-26T03:39:52.854Z,91.09
2019-03-26T03:42:23.751Z,90.81
2019-03-26T03:44:54.349Z,90.78
2019-03-26T03:47:27.346Z,90.44
2019-03-26T03:49:58.236Z,90.32
2019-03-26T03:52:30.547Z,90.46
2019-03-26T03:55:01.408Z,90.83
2019-03-26T03:57:32.683Z,91.20
2019-03-26T04:00:03.548Z,90.92
2019-03-26T04:02:34.963Z,91.06
2019-03-26T04:05:06.682Z,91.11
2019-03-26T04:07:37.645Z,91.22
2019-03-26T04:10:08.727Z,91.17
2019-03-26T04:12:39.739Z,91.19
2019-03-26T04:15:11.113Z,91.30
2019-03-26T04:17:41.787Z,91.50
2019-03-26T04:20:12.492Z,91.62
2019-03-26T04:22:43.644Z,91.68
2019-03-26T04:25:14.924Z,91.71
2019-03-26T04:27:45.841Z,91.93
2019-03-26T04:30:20.658Z,92.27
2019-03-26T04:32:51.724Z,92.27
2019-03-26T04:35:23.424Z,92.16
2019-03-26T04:37:54.374Z,92.05
2019-03-26T04:40:25.120Z,91.93
2019-03-26T04:42:56.335Z,92.50
2019-03-26T04:45:27.134Z,92.50
2019-03-26T04:47:58.388Z,92.49
2019-03-26T04:50:29.577Z,92.38
2019-03-26T04:53:00.396Z,92.41
2019-03-26T04:55:31.183Z,92.27
2019-03-26T04:58:02.281Z,92.29
2019-03-26T05:00:33.751Z,92.05
2019-03-26T05:03:04.562Z,92.00
2019-03-26T05:05:35.579Z,91.96
2019-03-26T05:08:06.341Z,91.80
2019-03-26T05:10:37.121Z,91.78
2019-03-26T05:13:08.428Z,91.53
2019-03-26T05:15:39.277Z,91.50
2019-03-26T05:18:10.962Z,91.31
2019-03-26T05:20:41.723Z,91.24
2019-03-26T05:23:12.706Z,90.95
2019-03-26T05:25:43.371Z,91.01
2019-03-26T05:28:14.380Z,91.01
2019-03-26T05:31:02.427Z,90.98
2019-03-26T05:33:33.107Z,90.84
2019-03-26T05:36:03.981Z,91.10
2019-03-26T05:38:34.966Z,91.16
2019-03-26T05:41:05.797Z,90.95
2019-03-26T05:43:37.041Z,90.99
2019-03-26T05:46:07.990Z,91.09
2019-03-26T05:48:38.785Z,91.09
2019-03-26T05:51:10.705Z,91.23
2019-03-26T05:53:41.858Z,90.84
2019-03-26T05:56:13.203Z,90.88
2019-03-26T05:58:44.108Z,90.91
2019-03-26T06:01:16.257Z,91.03
2019-03-26T06:03:47.919Z,91.12
2019-03-26T06:06:21.062Z,91.08
2019-03-26T06:08:52.001Z,91.16
2019-03-26T06:11:24.008Z,91.13
2019-03-26T06:13:55.401Z,90.96
2019-03-26T06:16:37.827Z,90.85
2019-03-26T06:18:59.148Z,90.61
2019-03-26T06:21:30.152Z,90.24
2019-03-26T06:24:01.576Z,90.20
2019-03-26T06:26:32.544Z,89.55
2019-03-26T06:29:03.419Z,89.35
2019-03-26T06:31:34.944Z,88.90
2019-03-26T06:34:06.279Z,88.68
2019-03-26T06:36:36.826Z,88.67
2019-03-26T06:39:09.270Z,88.71
2019-03-26T06:41:40.560Z,88.23
2019-03-26T06:44:11.600Z,88.49
2019-03-26T06:46:42.559Z,88.59
2019-03-26T06:49:13.351Z,88.09
2019-03-26T06:51:44.164Z,87.70
2019-03-26T06:54:15.009Z,87.53
2019-03-26T06:56:46.043Z,87.28
2019-03-26T06:59:17.363Z,87.50
2019-03-26T07:01:48.482Z,86.98
2019-03-26T07:04:20.121Z,86.97
2019-03-26T07:06:51.323Z,86.57
2019-03-26T07:09:22.554Z,86.74
2019-03-26T07:11:53.364Z,85.44
2019-03-26T07:14:24.683Z,86.25
2019-03-26T07:16:55.444Z,85.87
2019-03-26T07:19:26.195Z,85.47
2019-03-26T07:21:57.152Z,86.11
2019-03-26T07:24:27.783Z,85.29
2019-03-26T07:26:58.764Z,85.33
2019-03-26T07:29:29.497Z,85.15
2019-03-26T07:32:00.448Z,83.98
2019-03-26T07:34:32.087Z,83.96
2019-03-26T07:37:04.061Z,84.56
2019-03-26T07:39:35.044Z,84.38
2019-03-26T07:42:06.390Z,84.61
2019-03-26T07:44:37.452Z,84.64
2019-03-26T07:47:08.403Z,84.10
2019-03-26T07:49:39.964Z,84.50
2019-03-26T07:52:11.610Z,84.48
2019-03-26T07:54:43.731Z,84.44
2019-03-26T07:57:14.878Z,84.18
2019-03-26T07:59:46.372Z,83.75
2019-03-26T08:02:18.202Z,83.68
2019-03-26T08:04:49.723Z,83.44
2019-03-26T08:07:20.819Z,83.22
2019-03-26T08:09:51.887Z,83.00
2019-03-26T08:12:22.923Z,83.51
2019-03-26T08:14:54.963Z,83.69
2019-03-26T08:17:26.536Z,83.40
2019-03-26T08:19:57.763Z,83.17
2019-03-26T08:22:28.603Z,83.24
2019-03-26T08:25:00.049Z,83.32
2019-03-26T08:27:31.084Z,83.36
2019-03-26T08:30:03.045Z,82.78
2019-03-26T08:32:36.944Z,83.04
2019-03-26T08:35:07.684Z,83.12
2019-03-26T08:37:38.845Z,82.88
2019-03-26T08:40:09.429Z,82.72
2019-03-26T08:42:40.483Z,82.34
2019-03-26T08:45:11.525Z,82.32
2019-03-26T08:47:42.803Z,81.72
2019-03-26T08:50:14.644Z,81.13
2019-03-26T08:52:45.485Z,81.02
2019-03-26T08:55:16.566Z,81.44
2019-03-26T08:57:47.445Z,81.36
2019-03-26T09:00:19.125Z,81.41
2019-03-26T09:02:50.603Z,80.71
2019-03-26T09:05:21.726Z,81.02
2019-03-26T09:07:52.591Z,80.85
2019-03-26T09:10:24.679Z,81.50
2019-03-26T09:12:55.657Z,81.60
2019-03-26T09:15:27.188Z,80.60
2019-03-26T09:17:58.388Z,80.57
2019-03-26T09:20:30.563Z,79.28
2019-03-26T09:23:01.843Z,78.79
2019-03-26T09:25:34.307Z,78.49
2019-03-26T09:28:05.866Z,78.91
2019-03-26T09:30:38.058Z,77.20
2019-03-26T09:33:09.299Z,77.00
2019-03-26T09:35:40.904Z,75.91
2019-03-26T09:38:12.097Z,74.76
2019-03-26T09:40:43.154Z,74.68
2019-03-26T09:43:13.841Z,74.21
2019-03-26T09:45:44.215Z,74.43
2019-03-26T09:48:14.627Z,74.76
2019-03-26T09:50:45.079Z,74.65
2019-03-26T09:53:15.447Z,74.59
2019-03-26T09:55:46.089Z,74.29
2019-03-26T09:58:16.692Z,73.48
2019-03-26T10:00:47.243Z,73.63
2019-03-26T10:03:17.769Z,73.11
2019-03-26T10:05:48.251Z,73.17
2019-03-26T10:08:18.690Z,73.01
2019-03-26T10:10:50.085Z,72.64
2019-03-26T10:13:20.552Z,72.20
2019-03-26T10:15:50.973Z,73.01
2019-03-26T10:18:21.402Z,71.40
2019-03-26T10:20:51.954Z,71.88
2019-03-26T10:23:22.436Z,71.57
2019-03-26T10:25:52.855Z,72.26
2019-03-26T10:28:23.212Z,71.49
2019-03-26T10:30:54.636Z,71.45
2019-03-26T10:33:26.068Z,71.94
2019-03-26T10:35:56.526Z,72.02
2019-03-26T10:38:27.113Z,71.94
2019-03-26T10:40:57.587Z,70.84
2019-03-26T10:43:27.942Z,70.59
2019-03-26T10:45:58.365Z,71.29
2019-03-26T10:48:31.807Z,69.85
2019-03-26T10:51:00.847Z,70.49
2019-03-26T10:53:31.213Z,70.13
2019-03-26T10:56:01.602Z,70.64
2019-03-26T10:58:32.238Z,70.18
2019-03-26T11:01:02.716Z,69.43
2019-03-26T11:03:33.516Z,68.15
2019-03-26T11:06:04.028Z,67.56
2019-03-26T11:08:34.624Z,67.70
2019-03-26T11:11:05.618Z,67.46
2019-03-26T11:13:36.583Z,66.70
2019-03-26T11:16:06.981Z,66.63
2019-03-26T11:18:37.443Z,66.75
2019-03-26T11:21:07.914Z,66.07
2019-03-26T11:23:38.421Z,65.78
2019-03-26T11:26:08.973Z,65.69
2019-03-26T11:28:39.363Z,65.31
2019-03-26T11:31:09.771Z,64.91
2019-03-26T11:33:40.317Z,65.40
2019-03-26T11:36:10.762Z,65.71
2019-03-26T11:38:41.255Z,65.31
2019-03-26T11:41:11.648Z,64.86
2019-03-26T11:43:42.405Z,64.27
2019-03-26T11:46:12.826Z,64.27
2019-03-26T11:48:43.326Z,64.14
2019-03-26T11:51:13.854Z,62.65
2019-03-26T11:53:44.316Z,63.33
2019-03-26T11:56:14.774Z,63.26
2019-03-26T11:58:45.210Z,63.33
2019-03-26T12:01:15.621Z,63.33
2019-03-26T12:03:46.050Z,62.90
2019-03-26T12:06:16.515Z,63.16
2019-03-26T12:08:46.992Z,63.40
2019-03-26T12:11:17.458Z,61.80
2019-03-26T12:13:47.834Z,61.59
2019-03-26T12:16:18.321Z,62.18
2019-03-26T12:18:48.909Z,61.19
2019-03-26T12:21:19.892Z,61.46
2019-03-26T12:23:50.361Z,62.21
2019-03-26T12:26:20.771Z,62.66
2019-03-26T12:28:51.219Z,62.55
2019-03-26T12:31:21.656Z,62.50
2019-03-26T12:33:52.105Z,62.16
2019-03-26T12:36:22.804Z,62.67
2019-03-26T12:38:53.223Z,61.43
2019-03-26T12:41:23.620Z,60.95
2019-03-26T12:43:54.168Z,60.45
2019-03-26T12:46:24.915Z,61.24
2019-03-26T12:48:56.374Z,61.27
2019-03-26T12:51:26.784Z,62.07
2019-03-26T12:53:57.131Z,62.80
2019-03-26T12:56:27.936Z,63.82
2019-03-26T12:58:58.635Z,64.76
2019-03-26T13:01:29.239Z,64.24
2019-03-26T13:04:12.058Z,64.89
2019-03-26T13:06:32.413Z,65.06
2019-03-26T13:09:03.284Z,65.47
2019-03-26T13:11:33.692Z,66.01
2019-03-26T13:14:04.143Z,66.46
2019-03-26T13:16:35.259Z,65.82
2019-03-26T13:19:06.062Z,65.80
2019-03-26T13:21:37.657Z,66.90
2019-03-26T13:24:11.310Z,67.40
2019-03-26T13:26:40.905Z,66.67
2019-03-26T13:29:11.534Z,66.88
2019-03-26T13:31:42.048Z,65.96
2019-03-26T13:34:12.973Z,65.69
2019-03-26T13:36:43.916Z,66.35
2019-03-26T13:39:14.374Z,65.54
2019-03-26T13:41:45.532Z,64.17
2019-03-26T13:44:16.215Z,65.14
2019-03-26T13:46:47.717Z,66.26
2019-03-26T13:49:18.326Z,65.77
2019-03-26T13:51:49.002Z,66.30
2019-03-26T13:54:19.381Z,66.49
2019-03-26T13:56:49.779Z,67.02
2019-03-26T13:59:20.234Z,67.24
2019-03-26T14:01:54.228Z,66.81
2019-03-26T14:04:25.147Z,66.41
2019-03-26T14:06:55.546Z,65.99
2019-03-26T14:09:26.111Z,66.69
2019-03-26T14:11:57.782Z,66.48
2019-03-26T14:14:28.406Z,66.13
2019-03-26T14:16:59.135Z,65.91
2019-03-26T14:19:29.582Z,66.70
2019-03-26T14:22:00.066Z,66.92
2019-03-26T14:24:30.648Z,67.01
2019-03-26T14:27:01.101Z,67.72
2019-03-26T14:29:31.539Z,67.62
2019-03-26T14:32:01.961Z,67.74
2019-03-26T14:34:32.467Z,68.04
2019-03-26T14:37:02.941Z,66.97
2019-03-26T14:39:33.345Z,67.26
2019-03-26T14:42:29.191Z,67.38
2019-03-26T14:45:01.275Z,67.85
2019-03-26T14:47:32.176Z,68.58
2019-03-26T14:50:02.826Z,69.60
2019-03-26T14:52:33.895Z,70.43
2019-03-26T14:55:06.320Z,70.19
2019-03-26T14:57:36.729Z,70.43
2019-03-26T15:00:07.547Z,70.19
2019-03-26T15:02:39.734Z,70.10
2019-03-26T15:05:13.757Z,69.26
2019-03-26T15:07:44.817Z,69.37
2019-03-26T15:10:17.766Z,68.85
2019-03-26T15:12:48.386Z,68.00
2019-03-26T15:15:18.847Z,68.82
2019-03-26T15:17:49.358Z,69.02
2019-03-26T15:20:19.878Z,71.42
2019-03-26T15:22:50.283Z,73.62
2019-03-26T15:25:20.715Z,73.96
2019-03-26T15:27:52.140Z,76.50
2019-03-26T15:30:24.194Z,78.40
2019-03-26T15:32:55.155Z,79.41
2019-03-26T15:35:26.698Z,79.41
2019-03-26T15:37:58.694Z,79.68
2019-03-26T15:40:30.984Z,79.10
2019-03-26T15:43:02.034Z,77.51
2019-03-26T15:45:32.613Z,77.44
2019-03-26T15:48:03.213Z,76.77
2019-03-26T15:50:36.455Z,77.85
2019-03-26T15:53:06.846Z,76.68
2019-03-26T15:55:37.355Z,78.07
2019-03-26T15:58:07.873Z,75.42
2019-03-26T16:00:38.358Z,76.42
2019-03-26T16:03:08.807Z,76.04
2019-03-26T16:05:40.696Z,76.45
2019-03-26T16:08:11.232Z,75.22
2019-03-26T16:10:41.708Z,74.87
2019-03-26T16:13:12.351Z,74.64
2019-03-26T16:15:44.856Z,73.32
2019-03-26T16:18:14.957Z,73.11
2019-03-26T16:20:45.487Z,70.84
2019-03-26T16:23:15.886Z,71.41
2019-03-26T16:25:46.353Z,69.84
2019-03-26T16:28:16.994Z,70.36
2019-03-26T16:30:47.464Z,70.59
2019-03-26T16:33:17.884Z,71.00
2019-03-26T16:35:48.289Z,71.41
2019-03-26T16:38:18.719Z,71.28
2019-03-26T16:40:49.219Z,71.18
2019-03-26T16:43:19.780Z,70.96
2019-03-26T16:45:50.324Z,71.76
2019-03-26T16:48:20.728Z,70.93
2019-03-26T16:50:52.583Z,69.54
2019-03-26T16:53:23.151Z,69.41
2019-03-26T16:55:53.532Z,68.67
2019-03-26T16:58:24.643Z,69.36
2019-03-26T17:00:55.756Z,69.28
2019-03-26T17:03:31.566Z,69.05
2019-03-26T17:06:00.956Z,69.69
2019-03-26T17:08:31.624Z,69.54
2019-03-26T17:11:03.237Z,69.70
2019-03-26T17:13:34.876Z,70.33
2019-03-26T17:16:06.417Z,70.18
2019-03-26T17:18:37.915Z,69.75
2019-03-26T17:21:09.136Z,69.54
2019-03-26T17:23:43.678Z,69.97
2019-03-26T17:26:15.600Z,70.03
2019-03-26T17:28:46.736Z,69.79
2019-03-26T17:31:17.757Z,69.00
2019-03-26T17:33:49.357Z,68.70
2019-03-26T17:36:20.235Z,68.21
2019-03-26T17:38:51.349Z,67.53
2019-03-26T17:41:22.980Z,67.41
2019-03-26T17:43:54.199Z,67.38
2019-03-26T17:46:25.020Z,67.38
2019-03-26T17:48:56.994Z,66.95
2019-03-26T17:51:28.755Z,67.06
2019-03-26T17:54:00.011Z,67.24
2019-03-26T17:56:31.195Z,67.11
2019-03-26T17:59:02.581Z,66.56
2019-03-26T18:01:33.336Z,66.82
2019-03-26T18:04:18.158Z,66.82
2019-03-26T18:06:54.276Z,66.72
2019-03-26T18:09:25.476Z,66.51
2019-03-26T18:11:57.069Z,66.66
2019-03-26T18:14:28.382Z,67.05
2019-03-26T18:17:03.852Z,66.69
2019-03-26T18:19:35.454Z,67.75
2019-03-26T18:22:22.257Z,67.33
2019-03-26T18:25:05.087Z,67.31
2019-03-26T18:27:40.599Z,67.47
2019-03-26T18:30:14.044Z,67.57
2019-03-26T18:32:44.726Z,68.08
2019-03-26T18:35:21.486Z,68.03
2019-03-26T18:37:57.429Z,68.31
2019-03-26T18:40:30.849Z,69.34
2019-03-26T18:43:02.917Z,71.01
2019-03-26T18:45:34.328Z,71.89
2019-03-26T18:48:10.445Z,72.32
2019-03-26T18:50:44.246Z,72.14
2019-03-26T18:53:18.193Z,72.31
2019-03-26T18:55:53.044Z,72.20
2019-03-26T18:58:26.982Z,72.69
2019-03-26T19:01:00.288Z,72.72
2019-03-26T19:03:32.205Z,72.44
2019-03-26T19:06:12.526Z,72.39
2019-03-26T19:08:57.528Z,72.25
2019-03-26T19:11:34.615Z,72.17
2019-03-26T19:14:08.182Z,72.81
2019-03-26T19:16:43.342Z,72.74
2019-03-26T19:19:21.133Z,73.04
2019-03-26T19:21:55.797Z,72.74
2019-03-26T19:24:38.566Z,73.32
2019-03-26T19:27:16.678Z,73.32
2019-03-26T19:29:48.399Z,73.10
2019-03-26T19:32:26.316Z,73.52
2019-03-26T19:35:16.223Z,73.53
2019-03-26T19:38:05.791Z,73.16
2019-03-26T19:40:57.391Z,73.15
2019-03-26T19:43:40.641Z,72.70
2019-03-26T19:46:18.942Z,72.50
2019-03-26T19:48:59.405Z,72.55
2019-03-26T19:51:32.404Z,73.12
2019-03-26T19:54:03.495Z,72.95
2019-03-26T19:56:34.601Z,72.94
2019-03-26T19:59:05.961Z,73.32
2019-03-26T20:01:37.479Z,72.84
2019-03-26T20:04:08.799Z,72.60
2019-03-26T20:06:43.360Z,72.05
2019-03-26T20:09:18.480Z,72.74
2019-03-26T20:11:49.691Z,72.43
2019-03-26T20:14:22.270Z,72.87
2019-03-26T20:16:53.713Z,72.63
2019-03-26T20:19:26.362Z,72.88
2019-03-26T20:21:57.897Z,73.77
2019-03-26T20:24:29.437Z,75.64
2019-03-26T20:27:00.227Z,77.33
2019-03-26T20:29:31.849Z,77.41
2019-03-26T20:32:03.554Z,78.90
2019-03-26T20:34:36.140Z,78.54
2019-03-26T20:37:08.688Z,78.78
2019-03-26T20:39:40.889Z,79.69
2019-03-26T20:42:11.576Z,79.32
2019-03-26T20:44:42.195Z,79.76
2019-03-26T20:47:13.747Z,78.76
2019-03-26T20:49:52.666Z,79.09
2019-03-26T20:52:31.708Z,79.25
2019-03-26T20:55:11.328Z,79.41
2019-03-26T20:57:42.511Z,77.51
2019-03-26T21:00:19.752Z,79.41
2019-03-26T21:02:54.388Z,78.91
2019-03-26T21:05:39.259Z,78.75
2019-03-26T21:08:22.813Z,78.25
2019-03-26T21:10:55.505Z,77.91
2019-03-26T21:13:27.157Z,78.49
2019-03-26T21:15:59.139Z,78.60
2019-03-26T21:18:30.256Z,78.33
2019-03-26T21:21:02.543Z,78.66
2019-03-26T21:23:33.637Z,79.01
2019-03-26T21:26:05.264Z,78.59
2019-03-26T21:28:38.674Z,78.67
2019-03-26T21:31:09.946Z,79.71
2019-03-26T21:33:41.951Z,79.67
2019-03-26T21:36:13.401Z,79.65
2019-03-26T21:38:44.199Z,80.26
2019-03-26T21:41:15.400Z,79.85
2019-03-26T21:43:46.526Z,80.69
2019-03-26T21:46:17.502Z,81.20
2019-03-26T21:48:48.211Z,81.58
2019-03-26T21:51:19.340Z,81.49
2019-03-26T21:53:50.091Z,81.27
2019-03-26T21:56:21.235Z,80.29
2019-03-26T21:58:51.892Z,80.06
2019-03-26T22:01:23.562Z,80.10
2019-03-26T22:03:54.327Z,80.95
2019-03-26T22:06:25.767Z,80.73
2019-03-26T22:08:57.686Z,81.13
2019-03-26T22:11:29.821Z,80.97
2019-03-26T22:14:00.752Z,80.94
2019-03-26T22:16:32.164Z,80.92
2019-03-26T22:19:03.318Z,80.94
2019-03-26T22:21:34.358Z,81.54
2019-03-26T22:24:05.948Z,80.95
2019-03-26T22:26:37.550Z,81.38
2019-03-26T22:29:08.815Z,80.79
2019-03-26T22:31:40.122Z,80.62
2019-03-26T22:34:11.300Z,80.66
2019-03-26T22:36:42.111Z,80.63
2019-03-26T22:39:13.493Z,80.52
2019-03-26T22:41:45.085Z,80.29
2019-03-26T22:44:16.296Z,81.25
2019-03-26T22:46:47.772Z,81.62
2019-03-26T22:49:19.317Z,81.80
2019-03-26T22:51:50.055Z,81.57
2019-03-26T22:54:21.224Z,81.50
2019-03-26T22:56:52.201Z,81.01
2019-03-26T22:59:23.173Z,80.88
2019-03-26T23:01:54.273Z,81.14
2019-03-26T23:04:26.193Z,80.79
2019-03-26T23:06:57.286Z,81.14
2019-03-26T23:09:28.483Z,81.93
2019-03-26T23:11:59.638Z,81.55
2019-03-26T23:14:43.943Z,81.91
2019-03-26T23:17:03.422Z,81.95
2019-03-26T23:19:34.222Z,82.25
2019-03-26T23:22:05.145Z,81.98
2019-03-26T23:24:36.071Z,81.94
2019-03-26T23:27:07.282Z,81.80
2019-03-26T23:29:38.462Z,81.59
2019-03-26T23:32:09.806Z,81.45
2019-03-26T23:34:40.552Z,81.46
2019-03-26T23:37:11.334Z,81.35
2019-03-26T23:39:42.457Z,80.98
2019-03-26T23:42:13.367Z,81.06
2019-03-26T23:44:57.442Z,80.77
2019-03-26T23:47:16.741Z,81.03
2019-03-26T23:49:48.026Z,81.03
2019-03-26T23:52:19.135Z,80.91
2019-03-26T23:54:49.965Z,81.17
2019-03-26T23:57:21.079Z,81.40
2019-03-26T23:59:52.031Z,81.08
